Miami, Florida
Traffic Map
Current Weather Conditions
Miami, Florida
Scattered Clouds
Scattered Clouds
27°
Feels Like: 31°
Wind Chill: 27° Ceiling: Unl
Heat Index: 31° Visibility: 10mi
Dew Point: 25° Wind: 3mph
Humidity: 88% Direction: 290° (WNW)
Pressure: 30.02in Gusts: 0mph
Raw Report DataKMIA 021153Z 29003KT 10SM FEW025 SCT250 27/25 A3002 RMK AO2 SLP164 T02720250 10278 20267 53020
Traffic Incident Summary
Active as of:
Severity:
Category:
InformationThere was an issue retrieving the traffic information for this location. Please try a different location or try again shortly.
Advertisements
Track Severe Weather on mobile